Time;durP1;ratioP1;P1;durP2;ratioP2;P2;SDS_P1;SDS_P2;PMS_P1;PMS_P2;Temp;Humidity;BMP_temperature;BMP_pressure;BME280_temperature;BME280_humidity;BME280_pressure;Samples;Min_cycle;Max_cycle;Signal;HPM_P1;HPM_P2
2022/10/07 00:02:14;;;;;;;22.47;6.17;;;;;;;;;;5063503;28;20028;-78
2022/10/07 00:04:44;;;;;;;19.30;6.33;;;;;;;;;;5071741;28;20029;-77
2022/10/07 00:07:13;;;;;;;22.10;5.80;;;;;;;;;;5070911;28;20029;-78
2022/10/07 00:09:42;;;;;;;19.07;6.80;;;;;;;;;;5078347;28;20040;-77
2022/10/07 00:12:08;;;;;;;21.33;7.50;;;;;;;;;;5080611;28;20032;-78
2022/10/07 00:14:34;;;;;;;20.83;7.10;;;;;;;;;;5063650;28;20096;-77
2022/10/07 00:17:00;;;;;;;22.40;6.07;;;;;;;;;;5066335;28;20032;-75
2022/10/07 00:19:26;;;;;;;20.87;5.77;;;;;;;;;;5063641;28;20097;-78
2022/10/07 00:21:52;;;;;;;19.50;6.37;;;;;;;;;;5063614;28;20375;-75
2022/10/07 00:24:18;;;;;;;17.20;5.83;;;;;;;;;;5063159;28;20039;-77
2022/10/07 00:26:44;;;;;;;19.20;6.17;;;;;;;;;;5067243;28;20373;-77
2022/10/07 00:29:10;;;;;;;19.87;6.17;;;;;;;;;;5081632;28;20028;-75
2022/10/07 00:31:40;;;;;;;20.67;6.30;;;;;;;;;;5079583;28;20031;-77
2022/10/07 00:34:06;;;;;;;23.00;7.10;;;;;;;;;;5080004;28;20055;-77
2022/10/07 00:36:33;;;;;;;21.17;5.90;;;;;;;;;;5078962;28;20441;-75
2022/10/07 00:39:03;;;;;;;19.63;7.03;;;;;;;;;;5079620;28;20036;-76
2022/10/07 00:41:31;;;;;;;18.63;6.17;;;;;;;;;;5079410;28;20480;-76
2022/10/07 00:43:58;;;;;;;18.03;6.00;;;;;;;;;;5061796;28;20063;-78
2022/10/07 00:46:29;;;;;;;18.80;5.77;;;;;;;;;;5079148;28;20912;-78
2022/10/07 00:48:57;;;;;;;21.27;6.43;;;;;;;;;;5078858;28;20074;-77
2022/10/07 00:51:23;;;;;;;19.93;6.17;;;;;;;;;;5068978;28;20039;-76
2022/10/07 00:53:53;;;;;;;21.10;5.53;;;;;;;;;;5082817;28;20020;-78
2022/10/07 00:56:21;;;;;;;16.93;6.57;;;;;;;;;;5075568;28;20475;-77
2022/10/07 00:58:48;;;;;;;17.67;5.10;;;;;;;;;;5081614;28;20046;-77
2022/10/07 01:01:14;;;;;;;21.40;5.83;;;;;;;;;;5080319;28;20032;-77
2022/10/07 01:03:41;;;;;;;17.27;5.33;;;;;;;;;;5080330;28;20032;-77
2022/10/07 01:06:07;;;;;;;16.63;5.43;;;;;;;;;;5063350;28;20120;-76
2022/10/07 01:08:33;;;;;;;17.00;5.67;;;;;;;;;;5065121;28;20123;-77
2022/10/07 01:11:14;;;;;;;21.10;6.00;;;;;;;;;;5078518;28;20147;-77
2022/10/07 01:13:48;;;;;;;15.03;5.27;;;;;;;;;;5077606;28;20144;-76
2022/10/07 01:16:22;;;;;;;23.67;6.20;;;;;;;;;;5080636;28;20036;-78
2022/10/07 01:18:53;;;;;;;24.17;6.23;;;;;;;;;;5077903;28;20760;-76
2022/10/07 01:21:29;;;;;;;24.37;5.70;;;;;;;;;;5078134;28;20571;-76
2022/10/07 01:24:07;;;;;;;19.20;5.50;;;;;;;;;;5069353;28;20119;-77
2022/10/07 01:26:55;;;;;;;23.13;6.50;;;;;;;;;;5081637;28;20416;-78
2022/10/07 01:29:24;;;;;;;19.83;4.70;;;;;;;;;;5079173;28;20548;-77
2022/10/07 01:32:03;;;;;;;21.13;5.57;;;;;;;;;;5065192;28;20040;-77
2022/10/07 01:34:31;;;;;;;17.47;5.20;;;;;;;;;;5078458;28;20487;-79
2022/10/07 01:36:58;;;;;;;19.70;5.50;;;;;;;;;;5072782;28;20040;-77
2022/10/07 01:39:28;;;;;;;16.37;5.27;;;;;;;;;;5059494;28;20044;-75
2022/10/07 01:41:54;;;;;;;18.97;5.93;;;;;;;;;;5078140;28;20028;-77
2022/10/07 01:44:21;;;;;;;14.93;5.33;;;;;;;;;;5070759;28;20039;-78
2022/10/07 01:46:47;;;;;;;22.53;5.53;;;;;;;;;;5065688;28;20051;-76
2022/10/07 01:49:13;;;;;;;17.70;5.27;;;;;;;;;;5065030;28;20778;-77
2022/10/07 01:51:40;;;;;;;15.40;4.90;;;;;;;;;;5066154;28;20032;-77
2022/10/07 01:54:06;;;;;;;19.53;5.67;;;;;;;;;;5064172;28;20028;-78
2022/10/07 01:56:50;;;;;;;21.53;5.30;;;;;;;;;;5078725;28;20039;-76
2022/10/07 01:59:22;;;;;;;19.57;5.77;;;;;;;;;;5064307;28;20361;-77
2022/10/07 02:01:56;;;;;;;16.67;5.15;;;;;;;;;;5078074;28;21740;-77
2022/10/07 02:04:24;;;;;;;19.40;5.30;;;;;;;;;;5094274;28;20036;-77
2022/10/07 02:07:00;;;;;;;21.87;5.57;;;;;;;;;;5069294;28;20083;-77
2022/10/07 02:09:36;;;;;;;14.83;4.53;;;;;;;;;;5077941;28;20030;-76
2022/10/07 02:12:14;;;;;;;16.40;5.37;;;;;;;;;;5076311;28;20051;-77
2022/10/07 02:14:47;;;;;;;19.47;5.90;;;;;;;;;;5076617;28;20032;-77
2022/10/07 02:17:17;;;;;;;22.15;6.93;;;;;;;;;;5077779;28;20029;-77
2022/10/07 02:19:46;;;;;;;19.00;5.70;;;;;;;;;;5061560;28;20044;-78
2022/10/07 02:22:13;;;;;;;15.70;5.97;;;;;;;;;;5077996;28;20032;-76
2022/10/07 02:24:39;;;;;;;14.53;5.33;;;;;;;;;;5078139;28;20035;-76
2022/10/07 02:27:07;;;;;;;18.03;5.20;;;;;;;;;;5076645;28;20517;-77
2022/10/07 02:29:35;;;;;;;13.37;5.37;;;;;;;;;;5075263;28;20032;-76
2022/10/07 02:32:02;;;;;;;23.37;5.27;;;;;;;;;;5061471;28;20032;-76
2022/10/07 02:34:29;;;;;;;15.00;5.17;;;;;;;;;;5059388;28;20024;-77
2022/10/07 02:36:59;;;;;;;19.67;5.87;;;;;;;;;;5070067;28;20444;-78
2022/10/07 02:39:25;;;;;;;22.77;5.80;;;;;;;;;;5062910;28;20038;-76
2022/10/07 02:41:51;;;;;;;25.30;5.73;;;;;;;;;;5062524;28;20028;-75
2022/10/07 02:44:17;;;;;;;17.83;5.83;;;;;;;;;;5062645;28;20039;-77
2022/10/07 02:46:51;;;;;;;15.33;5.37;;;;;;;;;;5077071;28;20033;-76
2022/10/07 02:49:22;;;;;;;18.87;5.10;;;;;;;;;;5061874;28;20931;-77
2022/10/07 02:52:04;;;;;;;12.30;4.53;;;;;;;;;;5076811;28;20166;-77
2022/10/07 02:54:32;;;;;;;26.87;6.00;;;;;;;;;;5077774;28;20033;-76
2022/10/07 02:56:59;;;;;;;20.70;5.30;;;;;;;;;;5077088;28;20036;-77
2022/10/07 02:59:28;;;;;;;13.70;5.23;;;;;;;;;;5070950;28;20456;-76
2022/10/07 03:01:58;;;;;;;17.57;5.57;;;;;;;;;;5079246;28;20107;-78
2022/10/07 03:04:24;;;;;;;15.47;5.60;;;;;;;;;;5071352;28;20040;-77
2022/10/07 03:06:51;;;;;;;18.23;5.53;;;;;;;;;;5076930;28;20025;-76
2022/10/07 03:09:17;;;;;;;21.53;6.00;;;;;;;;;;5062582;28;20546;-77
2022/10/07 03:11:42;;;;;;;26.43;6.30;;;;;;;;;;5061043;28;20060;-76
2022/10/07 03:14:11;;;;;;;17.63;5.87;;;;;;;;;;5078702;28;20029;-76
2022/10/07 03:16:37;;;;;;;22.37;5.90;;;;;;;;;;5077175;28;20376;-78
2022/10/07 03:19:03;;;;;;;18.13;5.23;;;;;;;;;;5071464;28;20028;-77
2022/10/07 03:21:31;;;;;;;17.87;5.83;;;;;;;;;;5083088;28;20029;-76
2022/10/07 03:23:59;;;;;;;17.10;6.27;;;;;;;;;;5067842;28;20028;-77
2022/10/07 03:26:25;;;;;;;15.53;6.80;;;;;;;;;;5078032;28;20087;-76
2022/10/07 03:28:54;;;;;;;20.67;6.63;;;;;;;;;;5071794;28;20078;-77
2022/10/07 03:31:22;;;;;;;21.10;6.33;;;;;;;;;;5060136;28;20070;-78
2022/10/07 03:33:48;;;;;;;15.73;5.90;;;;;;;;;;5068590;28;20028;-76
2022/10/07 03:36:14;;;;;;;20.17;7.20;;;;;;;;;;5061937;28;20031;-76
2022/10/07 03:38:40;;;;;;;18.63;7.17;;;;;;;;;;5073943;28;20364;-78
2022/10/07 03:41:06;;;;;;;21.73;6.33;;;;;;;;;;5074657;28;20101;-76
2022/10/07 03:43:34;;;;;;;29.07;6.47;;;;;;;;;;5062197;28;20101;-77
2022/10/07 03:46:01;;;;;;;21.77;5.97;;;;;;;;;;5077288;28;20048;-76
2022/10/07 03:48:29;;;;;;;16.70;6.00;;;;;;;;;;5060327;28;20131;-78
2022/10/07 03:50:58;;;;;;;23.20;7.20;;;;;;;;;;5076287;28;20020;-78
2022/10/07 03:53:28;;;;;;;16.60;5.20;;;;;;;;;;5076451;28;20449;-78
2022/10/07 03:55:54;;;;;;;16.37;5.47;;;;;;;;;;5078088;28;20036;-77
2022/10/07 03:58:20;;;;;;;29.70;6.30;;;;;;;;;;5076060;28;20028;-77
2022/10/07 04:00:46;;;;;;;17.77;6.20;;;;;;;;;;5060200;28;20342;-76
2022/10/07 04:03:13;;;;;;;17.23;5.93;;;;;;;;;;5082781;28;20082;-77
2022/10/07 04:05:39;;;;;;;22.57;6.43;;;;;;;;;;5065268;28;20041;-77
2022/10/07 04:08:05;;;;;;;19.13;6.20;;;;;;;;;;5072899;28;20030;-77
2022/10/07 04:10:31;;;;;;;15.10;6.77;;;;;;;;;;5082766;28;20369;-77
2022/10/07 04:12:57;;;;;;;28.07;6.67;;;;;;;;;;5077210;28;20025;-76
2022/10/07 04:15:23;;;;;;;22.27;5.93;;;;;;;;;;5063512;28;20040;-77
2022/10/07 04:17:53;;;;;;;18.47;6.27;;;;;;;;;;5079149;28;20039;-76
2022/10/07 04:20:19;;;;;;;25.33;7.10;;;;;;;;;;5080843;28;20402;-78
2022/10/07 04:22:47;;;;;;;20.23;6.50;;;;;;;;;;5065124;28;20034;-78
2022/10/07 04:27:58;;;;;;;20.47;6.40;;;;;;;;;;5084687;28;20039;-77
2022/10/07 04:30:28;;;;;;;18.27;6.03;;;;;;;;;;5072691;28;20830;-77
2022/10/07 04:32:54;;;;;;;23.67;7.23;;;;;;;;;;5080529;28;20368;-78
2022/10/07 04:35:21;;;;;;;23.27;6.33;;;;;;;;;;5062463;28;20036;-76
2022/10/07 04:37:53;;;;;;;20.13;6.50;;;;;;;;;;5083280;28;20040;-77
2022/10/07 04:40:19;;;;;;;19.13;6.50;;;;;;;;;;5067913;28;20028;-78
2022/10/07 04:45:37;;;;;;;22.60;7.23;;;;;;;;;;5077820;28;20083;-77
2022/10/07 04:48:04;;;;;;;17.33;5.97;;;;;;;;;;5079628;28;20460;-77
2022/10/07 04:50:31;;;;;;;19.90;6.10;;;;;;;;;;5081211;28;20020;-77
2022/10/07 04:52:57;;;;;;;16.60;6.43;;;;;;;;;;5062314;28;20403;-77
2022/10/07 04:55:25;;;;;;;30.27;6.53;;;;;;;;;;5062697;28;20089;-78
2022/10/07 04:57:51;;;;;;;28.37;7.07;;;;;;;;;;5081953;28;20048;-76
2022/10/07 05:00:17;;;;;;;22.20;7.20;;;;;;;;;;5070384;28;20162;-77
2022/10/07 05:02:49;;;;;;;23.80;6.70;;;;;;;;;;5062048;28;20021;-77
2022/10/07 05:05:15;;;;;;;16.90;6.23;;;;;;;;;;5062157;28;20444;-76
2022/10/07 05:07:41;;;;;;;21.17;6.27;;;;;;;;;;5079346;28;20039;-77
2022/10/07 05:10:07;;;;;;;25.80;7.50;;;;;;;;;;5061193;28;20024;-77
2022/10/07 05:12:33;;;;;;;20.07;6.43;;;;;;;;;;5078697;28;20123;-77
2022/10/07 05:15:00;;;;;;;25.83;7.03;;;;;;;;;;5079327;28;20103;-77
2022/10/07 05:17:26;;;;;;;20.87;6.77;;;;;;;;;;5081618;28;20035;-76
2022/10/07 05:19:52;;;;;;;21.87;7.23;;;;;;;;;;5061815;28;20032;-78
2022/10/07 05:22:18;;;;;;;22.80;6.27;;;;;;;;;;5071320;28;20055;-78
2022/10/07 05:24:44;;;;;;;20.27;6.77;;;;;;;;;;5078529;28;20713;-77
2022/10/07 05:27:10;;;;;;;27.87;7.27;;;;;;;;;;5062117;28;20050;-77
2022/10/07 05:29:39;;;;;;;32.33;8.10;;;;;;;;;;5061452;28;20532;-77
2022/10/07 05:32:05;;;;;;;23.57;7.40;;;;;;;;;;5080513;28;20028;-77
2022/10/07 05:34:31;;;;;;;27.97;7.33;;;;;;;;;;5067063;28;20031;-77
2022/10/07 05:36:58;;;;;;;15.47;6.77;;;;;;;;;;5078896;28;20090;-78
2022/10/07 05:39:24;;;;;;;31.00;8.17;;;;;;;;;;5061980;28;20032;-77
2022/10/07 05:41:50;;;;;;;22.87;7.93;;;;;;;;;;5066433;28;20033;-77
2022/10/07 05:44:16;;;;;;;26.37;7.70;;;;;;;;;;5060261;28;20024;-77
2022/10/07 05:46:45;;;;;;;19.10;7.53;;;;;;;;;;5077579;28;20032;-78
2022/10/07 05:49:11;;;;;;;36.03;8.73;;;;;;;;;;5064345;28;20123;-77
2022/10/07 05:51:37;;;;;;;25.50;7.43;;;;;;;;;;5096303;28;20028;-78
2022/10/07 05:54:03;;;;;;;28.30;7.90;;;;;;;;;;5071119;28;20028;-78
2022/10/07 05:56:31;;;;;;;25.37;8.53;;;;;;;;;;5081836;28;20028;-78
2022/10/07 05:58:57;;;;;;;27.13;8.10;;;;;;;;;;5073455;28;20120;-77
2022/10/07 06:01:24;;;;;;;22.97;7.80;;;;;;;;;;5060029;28;20642;-78
2022/10/07 06:03:51;;;;;;;26.80;8.17;;;;;;;;;;5078288;28;20032;-77
2022/10/07 06:06:23;;;;;;;29.30;8.73;;;;;;;;;;5067391;28;20036;-78
2022/10/07 06:08:49;;;;;;;20.17;7.87;;;;;;;;;;5077630;28;20499;-78
2022/10/07 06:14:03;;;;;;;25.10;7.67;;;;;;;;;;5079933;28;20046;-79
2022/10/07 06:16:29;;;;;;;27.47;7.83;;;;;;;;;;5061495;28;20119;-77
2022/10/07 06:18:55;;;;;;;26.27;7.57;;;;;;;;;;5060605;28;20504;-78
2022/10/07 06:21:25;;;;;;;30.37;9.50;;;;;;;;;;5067335;28;20032;-78
2022/10/07 06:23:51;;;;;;;28.90;8.97;;;;;;;;;;5077511;28;20077;-78
2022/10/07 06:26:17;;;;;;;31.13;9.50;;;;;;;;;;5074978;28;20115;-78
2022/10/07 06:28:43;;;;;;;35.27;9.97;;;;;;;;;;5078570;28;20524;-78
2022/10/07 06:31:15;;;;;;;33.43;10.37;;;;;;;;;;5069028;28;20042;-79
2022/10/07 06:33:43;;;;;;;30.48;9.40;;;;;;;;;;5079971;28;20027;-78
2022/10/07 06:36:11;;;;;;;29.60;8.93;;;;;;;;;;5059301;28;20039;-78
2022/10/07 06:38:37;;;;;;;35.70;8.83;;;;;;;;;;5057933;28;20029;-78
2022/10/07 06:41:05;;;;;;;33.67;10.10;;;;;;;;;;5076543;28;20085;-76
2022/10/07 06:43:32;;;;;;;26.17;8.70;;;;;;;;;;5079739;28;20032;-78
2022/10/07 06:46:00;;;;;;;23.80;8.80;;;;;;;;;;5077369;28;20032;-78
2022/10/07 06:48:27;;;;;;;27.70;9.00;;;;;;;;;;5062659;28;20016;-77
2022/10/07 06:50:54;;;;;;;24.73;8.87;;;;;;;;;;5076297;28;20115;-78
2022/10/07 06:53:20;;;;;;;24.67;7.83;;;;;;;;;;5070696;28;20032;-76
2022/10/07 06:55:46;;;;;;;21.10;6.97;;;;;;;;;;5079528;28;20463;-78
2022/10/07 06:58:14;;;;;;;26.23;7.60;;;;;;;;;;5063095;28;20024;-78
2022/10/07 07:00:40;;;;;;;26.10;10.20;;;;;;;;;;5064758;28;20097;-77
2022/10/07 07:03:06;;;;;;;32.93;9.00;;;;;;;;;;5079141;28;20407;-78
2022/10/07 07:05:34;;;;;;;22.93;7.93;;;;;;;;;;5080036;28;20039;-77
2022/10/07 07:08:00;;;;;;;20.37;7.60;;;;;;;;;;5078900;28;20028;-77
2022/10/07 07:10:27;;;;;;;24.57;7.77;;;;;;;;;;5059724;28;20055;-78
2022/10/07 07:12:53;;;;;;;30.67;8.20;;;;;;;;;;5065469;28;20020;-77
2022/10/07 07:15:20;;;;;;;29.67;7.67;;;;;;;;;;5061304;28;20085;-78
2022/10/07 07:17:46;;;;;;;23.60;7.70;;;;;;;;;;5079294;28;20039;-78
2022/10/07 07:20:13;;;;;;;29.03;7.73;;;;;;;;;;5078372;28;20020;-79
2022/10/07 07:22:42;;;;;;;22.60;7.90;;;;;;;;;;5077916;28;20120;-79
2022/10/07 07:25:08;;;;;;;22.47;7.97;;;;;;;;;;5077963;28;20035;-78
2022/10/07 07:27:35;;;;;;;26.57;6.80;;;;;;;;;;5079901;28;20028;-77
2022/10/07 07:30:01;;;;;;;31.30;7.40;;;;;;;;;;5077799;28;20452;-78
2022/10/07 07:32:29;;;;;;;29.10;7.20;;;;;;;;;;5059585;28;20058;-78
2022/10/07 07:34:55;;;;;;;21.70;7.93;;;;;;;;;;5077584;28;20047;-78
2022/10/07 07:37:21;;;;;;;21.50;7.70;;;;;;;;;;5083620;28;20040;-77
2022/10/07 07:39:50;;;;;;;24.50;6.23;;;;;;;;;;5070191;28;20034;-78
2022/10/07 07:42:17;;;;;;;17.53;5.77;;;;;;;;;;5081391;28;20024;-77
2022/10/07 07:44:43;;;;;;;20.07;5.97;;;;;;;;;;5063823;28;20056;-78
2022/10/07 07:47:09;;;;;;;17.43;5.23;;;;;;;;;;5063659;28;20028;-77
2022/10/07 07:49:35;;;;;;;19.93;6.47;;;;;;;;;;5098452;28;20051;-79
2022/10/07 07:52:02;;;;;;;19.03;5.30;;;;;;;;;;5074953;28;20334;-78
2022/10/07 07:54:29;;;;;;;14.13;5.17;;;;;;;;;;5064218;28;20028;-77
2022/10/07 07:56:56;;;;;;;14.20;5.37;;;;;;;;;;5081351;28;20032;-78
2022/10/07 07:59:23;;;;;;;20.70;6.50;;;;;;;;;;5063810;28;20032;-77
2022/10/07 08:01:52;;;;;;;15.40;5.03;;;;;;;;;;5081217;28;20035;-78
2022/10/07 08:04:18;;;;;;;21.70;6.10;;;;;;;;;;5066988;28;20035;-77
2022/10/07 08:06:46;;;;;;;17.47;5.43;;;;;;;;;;5080788;28;20032;-78
2022/10/07 08:09:12;;;;;;;17.03;6.00;;;;;;;;;;5082376;28;21530;-78
2022/10/07 08:11:40;;;;;;;23.17;5.67;;;;;;;;;;5063889;28;20035;-76
2022/10/07 08:14:06;;;;;;;16.60;5.50;;;;;;;;;;5073394;28;20043;-77
2022/10/07 08:16:35;;;;;;;29.47;6.77;;;;;;;;;;5064470;28;20032;-77
2022/10/07 08:19:01;;;;;;;24.50;5.60;;;;;;;;;;5063656;28;20037;-78
2022/10/07 08:21:34;;;;;;;22.63;5.73;;;;;;;;;;5064397;28;20089;-78
2022/10/07 08:24:03;;;;;;;22.48;6.43;;;;;;;;;;5083898;28;20025;-76
2022/10/07 08:26:31;;;;;;;27.20;6.70;;;;;;;;;;5084025;28;20157;-78
2022/10/07 08:29:00;;;;;;;24.70;9.57;;;;;;;;;;5079140;28;20020;-75
2022/10/07 08:31:27;;;;;;;16.97;5.37;;;;;;;;;;5082824;28;20034;-78
2022/10/07 08:33:54;;;;;;;20.60;6.13;;;;;;;;;;5069361;28;20373;-77
2022/10/07 08:36:23;;;;;;;23.90;7.20;;;;;;;;;;5080288;28;20105;-78
2022/10/07 08:38:50;;;;;;;20.60;6.07;;;;;;;;;;5062624;28;20044;-78
2022/10/07 08:41:23;;;;;;;21.10;5.83;;;;;;;;;;5081644;28;20025;-76
2022/10/07 08:43:50;;;;;;;20.87;6.63;;;;;;;;;;5081518;28;20039;-78
2022/10/07 08:46:18;;;;;;;17.50;5.93;;;;;;;;;;5073387;28;20043;-77
2022/10/07 08:48:51;;;;;;;15.77;5.37;;;;;;;;;;5059734;28;21677;-78
2022/10/07 08:51:18;;;;;;;;;;;;;;;;;;5079491;28;20344;-78
2022/10/07 08:53:47;;;;;;;20.43;6.97;;;;;;;;;;5079594;28;19967;-77
2022/10/07 08:56:15;;;;;;;23.03;7.10;;;;;;;;;;5063211;28;20164;-78
2022/10/07 08:58:48;;;;;;;28.17;6.40;;;;;;;;;;5062024;28;20516;-77
2022/10/07 09:01:26;;;;;;;23.40;6.37;;;;;;;;;;5079837;28;20555;-78
2022/10/07 09:03:52;;;;;;;22.07;6.13;;;;;;;;;;5063251;28;20079;-78
2022/10/07 09:06:27;;;;;;;20.50;5.77;;;;;;;;;;5081017;28;20444;-78
2022/10/07 09:08:57;;;;;;;20.97;6.30;;;;;;;;;;5061645;28;20093;-76
2022/10/07 09:11:26;;;;;;;30.00;5.07;;;;;;;;;;5077338;28;20077;-76
2022/10/07 09:13:53;;;;;;;17.33;5.13;;;;;;;;;;5069864;28;20028;-77
2022/10/07 09:16:22;;;;;;;14.23;4.57;;;;;;;;;;5060392;28;20032;-77
2022/10/07 09:18:52;;;;;;;20.77;5.60;;;;;;;;;;5080021;28;20047;-78
2022/10/07 09:21:22;;;;;;;19.03;5.00;;;;;;;;;;5065140;28;20028;-78
2022/10/07 09:23:50;;;;;;;14.67;4.73;;;;;;;;;;5080608;28;20111;-78
2022/10/07 09:26:16;;;;;;;19.07;5.40;;;;;;;;;;5064746;28;20036;-78
2022/10/07 09:28:42;;;;;;;20.93;5.60;;;;;;;;;;5064056;28;20093;-75
2022/10/07 09:31:12;;;;;;;23.47;5.97;;;;;;;;;;5063444;28;20105;-76
2022/10/07 09:33:42;;;;;;;19.60;5.07;;;;;;;;;;5066929;28;20065;-78
2022/10/07 09:36:09;;;;;;;18.77;4.30;;;;;;;;;;5064061;28;20036;-77
2022/10/07 09:38:38;;;;;;;24.43;5.23;;;;;;;;;;5065354;28;20103;-78
2022/10/07 09:41:16;;;;;;;23.40;5.27;;;;;;;;;;5081191;28;20108;-78
2022/10/07 09:43:51;;;;;;;15.30;3.90;;;;;;;;;;5062587;28;20043;-77
2022/10/07 09:46:32;;;;;;;20.13;5.07;;;;;;;;;;5078781;28;20037;-77
2022/10/07 09:49:03;;;;;;;13.60;4.07;;;;;;;;;;5065363;28;20028;-78
2022/10/07 09:51:31;;;;;;;19.33;4.90;;;;;;;;;;5097128;27;20037;-77
2022/10/07 09:54:04;;;;;;;17.77;4.63;;;;;;;;;;5061388;28;20033;-76
2022/10/07 09:56:38;;;;;;;19.37;5.30;;;;;;;;;;5078245;28;20032;-78
2022/10/07 09:59:26;;;;;;;14.97;4.13;;;;;;;;;;5071734;28;20035;-78
2022/10/07 10:01:59;;;;;;;13.00;3.73;;;;;;;;;;5079008;28;20056;-77
2022/10/07 10:04:34;;;;;;;16.83;4.20;;;;;;;;;;5077001;28;20029;-77
2022/10/07 10:07:04;;;;;;;15.00;4.00;;;;;;;;;;5078800;28;20039;-78
2022/10/07 10:09:32;;;;;;;15.30;4.20;;;;;;;;;;5077584;28;20055;-77
2022/10/07 10:12:01;;;;;;;12.03;4.07;;;;;;;;;;5076594;28;20456;-81
2022/10/07 10:14:28;;;;;;;20.40;6.97;;;;;;;;;;5061767;28;20420;-78
2022/10/07 10:16:54;;;;;;;13.07;3.63;;;;;;;;;;5060569;28;20080;-77
2022/10/07 10:19:26;;;;;;;15.13;4.47;;;;;;;;;;5076151;28;20451;-76
2022/10/07 10:21:55;;;;;;;17.33;4.15;;;;;;;;;;5078218;28;20102;-76
2022/10/07 10:26:24;;;;;;;21.17;3.87;;;;;;;;;;5078387;28;20428;-78
2022/10/07 10:27:22;;;;;;;15.10;3.53;;;;;;;;;;5077325;28;20045;-79
2022/10/07 10:29:54;;;;;;;18.83;4.33;;;;;;;;;;5078317;28;20020;-78
2022/10/07 10:32:38;;;;;;;11.45;3.50;;;;;;;;;;5076146;28;20024;-77
2022/10/07 10:35:07;;;;;;;18.80;3.70;;;;;;;;;;5060992;28;20067;-78
2022/10/07 10:37:39;;;;;;;9.57;3.13;;;;;;;;;;5094836;28;20452;-77
2022/10/07 10:40:23;;;;;;;17.90;3.70;;;;;;;;;;5093977;28;20444;-78
2022/10/07 10:42:52;;;;;;;15.32;3.67;;;;;;;;;;5076591;28;20068;-78
2022/10/07 10:45:23;;;;;;;15.63;3.53;;;;;;;;;;5060937;28;20452;-77
2022/10/07 10:47:49;;;;;;;13.25;3.08;;;;;;;;;;5079322;28;20093;-77
2022/10/07 10:50:24;;;;;;;15.23;3.22;;;;;;;;;;5059555;28;20119;-77
2022/10/07 10:52:50;;;;;;;14.25;3.25;;;;;;;;;;5076036;28;20032;-78
2022/10/07 10:55:46;;;;;;;14.60;2.95;;;;;;;;;;5064738;28;20029;-77
2022/10/07 10:58:23;;;;;;;13.82;2.63;;;;;;;;;;5012886;28;20092;-77
2022/10/07 11:00:55;;;;;;;11.07;2.47;;;;;;;;;;5074992;28;20032;-77
2022/10/07 11:03:23;;;;;;;12.25;3.45;;;;;;;;;;5076458;28;20082;-77
2022/10/07 11:05:49;;;;;;;15.02;3.08;;;;;;;;;;5075749;28;20025;-76
2022/10/07 11:08:19;;;;;;;10.93;2.60;;;;;;;;;;5075135;28;20112;-75
2022/10/07 11:10:48;;;;;;;13.70;2.63;;;;;;;;;;5076662;28;20040;-77
2022/10/07 11:13:33;;;;;;;12.32;2.20;;;;;;;;;;5061669;28;20039;-78
2022/10/07 11:16:03;;;;;;;10.43;2.50;;;;;;;;;;5068382;28;20021;-77
2022/10/07 11:18:39;;;;;;;16.70;3.08;;;;;;;;;;5060854;28;20170;-77
2022/10/07 11:21:10;;;;;;;13.55;2.58;;;;;;;;;;5074643;28;20025;-77
2022/10/07 11:23:40;;;;;;;10.80;2.20;;;;;;;;;;5091489;28;20157;-79
2022/10/07 11:26:26;;;;;;;14.32;2.35;;;;;;;;;;5078461;28;20029;-77
2022/10/07 11:28:55;;;;;;;13.50;3.25;;;;;;;;;;5052084;28;20059;-77
2022/10/07 11:31:32;;;;;;;13.07;2.47;;;;;;;;;;5060165;28;20028;-78
2022/10/07 11:34:17;;;;;;;14.40;2.85;;;;;;;;;;5080256;28;20032;-76
2022/10/07 11:36:58;;;;;;;10.80;1.98;;;;;;;;;;5076408;28;20036;-77
2022/10/07 11:39:24;;;;;;;13.77;1.98;;;;;;;;;;5059732;28;20040;-77
2022/10/07 11:41:52;;;;;;;13.48;2.45;;;;;;;;;;5063924;28;20123;-77
2022/10/07 11:44:30;;;;;;;10.55;2.40;;;;;;;;;;5062830;28;20069;-77
2022/10/07 11:46:57;;;;;;;14.88;2.92;;;;;;;;;;5059341;28;20036;-77
2022/10/07 11:49:32;;;;;;;10.98;2.45;;;;;;;;;;5075820;28;20031;-76
2022/10/07 11:52:01;;;;;;;14.18;2.78;;;;;;;;;;5059241;28;21640;-77
2022/10/07 11:54:30;;;;;;;8.55;1.80;;;;;;;;;;5078453;28;20032;-77
2022/10/07 11:56:59;;;;;;;14.40;2.10;;;;;;;;;;5056480;28;20105;-76
2022/10/07 11:59:33;;;;;;;12.18;2.63;;;;;;;;;;5059847;28;20040;-76
2022/10/07 12:02:00;;;;;;;15.85;2.55;;;;;;;;;;5061567;28;20028;-78
2022/10/07 12:04:32;;;;;;;10.98;1.85;;;;;;;;;;5060543;28;20043;-77
2022/10/07 12:07:17;;;;;;;12.95;2.45;;;;;;;;;;5077209;28;20023;-78
2022/10/07 12:09:53;;;;;;;8.50;1.77;;;;;;;;;;5077996;28;20099;-76
2022/10/07 12:12:23;;;;;;;7.40;2.03;;;;;;;;;;5076731;28;20021;-76
2022/10/07 12:15:00;;;;;;;8.85;1.65;;;;;;;;;;5074734;28;20031;-77
2022/10/07 12:17:30;;;;;;;10.88;2.50;;;;;;;;;;5073350;28;20069;-76
2022/10/07 12:20:15;;;;;;;8.32;2.17;;;;;;;;;;5058058;28;20021;-77
2022/10/07 12:22:41;;;;;;;17.92;2.60;;;;;;;;;;5065061;28;20237;-77
2022/10/07 12:25:27;;;;;;;14.70;2.58;;;;;;;;;;5078314;28;20623;-77
2022/10/07 12:27:54;;;;;;;7.18;1.83;;;;;;;;;;5065484;28;20044;-75
2022/10/07 12:30:38;;;;;;;14.60;2.65;;;;;;;;;;5064213;28;20031;-79
2022/10/07 12:33:14;;;;;;;12.70;4.03;;;18.30;97.50;;;;;;5077447;28;20102;-77
2022/10/07 12:35:48;;;;;;;10.65;2.10;;;18.50;98.00;;;;;;5094560;28;20123;-76
2022/10/07 12:38:24;;;;;;;15.27;2.90;;;18.60;97.80;;;;;;5096020;28;20503;-77
2022/10/07 12:41:12;;;;;;;10.93;2.33;;;18.70;98.00;;;;;;5078450;28;20044;-76
2022/10/07 12:44:09;;;;;;;10.43;2.33;;;19.00;96.80;;;;;;5078404;28;20028;-76
2022/10/07 12:47:03;;;;;;;7.85;2.58;;;19.20;97.60;;;;;;5094843;28;20042;-77
2022/10/07 12:49:41;;;;;;;12.60;2.50;;;19.40;96.00;;;;;;5092631;28;20047;-77
2022/10/07 12:52:18;;;;;;;12.52;2.75;;;19.60;95.50;;;;;;5060131;28;20073;-77
2022/10/07 12:54:53;;;;;;;15.23;2.85;;;19.70;94.30;;;;;;5059234;28;20440;-77
2022/10/07 12:57:22;;;;;;;9.57;2.63;;;19.90;93.90;;;;;;5059702;28;20163;-78
2022/10/07 13:00:12;;;;;;;10.63;1.77;;;21.00;91.90;;;;;;5071262;28;20436;-78
2022/10/07 13:03:12;;;;;;;10.45;2.42;;;22.50;88.50;;;;;;5060750;28;20135;-75
2022/10/07 13:05:59;;;;;;;12.73;2.47;;;22.70;84.10;;;;;;5065647;28;20090;-77
2022/10/07 13:08:30;;;;;;;11.90;2.47;;;22.90;81.20;;;;;;5078336;28;20746;-77
2022/10/07 13:10:59;;;;;;;11.95;2.58;;;23.30;77.80;;;;;;5078416;28;20071;-76
2022/10/07 13:13:37;;;;;;;9.65;2.25;;;23.60;76.80;;;;;;5065332;28;20040;-78
2022/10/07 13:16:23;;;;;;;8.15;2.28;;;24.00;70.90;;;;;;5077366;28;20028;-76
2022/10/07 13:19:01;;;;;;;11.07;2.03;;;24.00;70.80;;;;;;5093085;28;20672;-77
2022/10/07 13:21:31;;;;;;;11.43;1.70;;;24.30;69.80;;;;;;5095386;28;20039;-76
2022/10/07 13:23:57;;;;;;;5.82;1.65;;;24.40;68.90;;;;;;5093952;28;20563;-76
2022/10/07 13:26:24;;;;;;;9.27;2.42;;;24.20;68.20;;;;;;5077815;28;20116;-77
2022/10/07 13:28:51;;;;;;;7.88;1.70;;;23.70;68.20;;;;;;5079445;28;20052;-77
2022/10/07 13:31:26;;;;;;;12.18;2.35;;;24.00;66.70;;;;;;5059069;28;20030;-77
2022/10/07 13:33:53;;;;;;;16.35;3.13;;;23.90;67.20;;;;;;5092752;28;20056;-76
2022/10/07 13:36:25;;;;;;;8.48;1.88;;;23.80;66.20;;;;;;5074757;28;20525;-76
2022/10/07 13:39:11;;;;;;;12.93;2.47;;;23.70;68.90;;;;;;5061002;28;20086;-76
2022/10/07 13:41:41;;;;;;;11.05;1.60;;;24.50;67.70;;;;;;5076442;28;20452;-77
2022/10/07 13:44:09;;;;;;;9.77;2.38;;;25.10;65.20;;;;;;5063049;28;20036;-77
2022/10/07 13:46:35;;;;;;;11.77;1.95;;;25.50;64.30;;;;;;5074883;28;20060;-77
2022/10/07 13:49:02;;;;;;;12.10;2.53;;;25.30;63.00;;;;;;5058684;28;20081;-76
2022/10/07 13:51:36;;;;;;;14.57;3.50;;;26.00;63.70;;;;;;5092989;28;20028;-77
2022/10/07 13:54:16;;;;;;;12.18;2.08;;;26.80;62.60;;;;;;5052028;28;20140;-77
2022/10/07 13:56:42;;;;;;;12.88;2.25;;;26.70;60.10;;;;;;5057862;28;20417;-77
2022/10/07 13:59:17;;;;;;;9.15;2.85;;;26.80;60.20;;;;;;5094012;28;20043;-77
2022/10/07 14:01:51;;;;;;;9.30;2.20;;;26.70;59.80;;;;;;5058363;28;20031;-76
2022/10/07 14:04:31;;;;;;;9.20;3.05;;;27.30;59.30;;;;;;5080734;28;20035;-78
2022/10/07 14:07:16;;;;;;;9.20;2.22;;;27.10;58.30;;;;;;5076672;28;20024;-76
2022/10/07 14:09:47;;;;;;;9.98;2.72;;;26.40;59.50;;;;;;5076062;28;20059;-76
2022/10/07 14:12:23;;;;;;;11.45;2.85;;;26.40;59.90;;;;;;5075704;28;20052;-77
2022/10/07 14:14:54;;;;;;;11.15;2.47;;;26.40;58.80;;;;;;5060471;28;20048;-76
2022/10/07 14:17:46;;;;;;;8.38;2.00;;;26.20;58.60;;;;;;5074470;28;20056;-77
2022/10/07 14:20:28;;;;;;;11.37;2.27;;;25.90;58.80;;;;;;5081259;28;20048;-79
2022/10/07 14:22:56;;;;;;;8.63;2.22;;;24.80;60.10;;;;;;5046125;28;20135;-77
2022/10/07 14:25:27;;;;;;;8.40;1.88;;;23.70;62.60;;;;;;5056519;28;20033;-76
2022/10/07 14:27:57;;;;;;;11.73;2.35;;;23.00;64.30;;;;;;5076527;28;20566;-78
2022/10/07 14:30:24;;;;;;;8.30;2.38;;;22.10;65.10;;;;;;5076946;28;20028;-76
2022/10/07 14:36:14;;;;;;;8.68;2.78;;;21.40;67.50;;;;;;5074707;28;20463;-78
2022/10/07 14:38:42;;;;;;;9.07;2.25;;;21.60;67.30;;;;;;5074031;28;20036;-77
2022/10/07 14:41:09;;;;;;;9.55;2.28;;;23.00;65.50;;;;;;5058737;28;20035;-75
2022/10/07 14:43:38;;;;;;;9.73;1.85;;;25.00;62.50;;;;;;5075098;28;20361;-78